KHLG/HLG METAR and TAF weather

Enter ICAO airport designator
Station Type Date Time Source
KHLG METAR 2019/04/20 17:53 UTC NOAA

KHLG 201753Z 25008G16KT 10SM SCT034 BKN043 15/07 A2957 RMK AO2 SLP014 T01500072 10172 20117 50011


Station Type Date Time Source
KHLG Decoded METAR 2019/04/20 17:53 UTC NOAA

WHEELING OHIO COUNTY AIRPORT, WV, United States (KHLG) 40-10N 080-39W 372M
Apr 20, 2019 - 01:53 PM EDT / 2019.04.20 1753 UTC
Wind: from the WSW (250 degrees) at 9 MPH (8 KT) gusting to 18 MPH (16 KT):0
Visibility: 10 mile(s):0
Sky conditions: mostly cloudy
Temperature: 59.0 F (15.0 C)
Dew Point: 45.0 F (7.2 C)
Relative Humidity: 59%
Pressure (altimeter): 29.57 in. Hg (1001 hPa)
Pressure tendency: 0.03 inches (1.1 hPa) higher than three hours ago
ob: KHLG 201753Z 25008G16KT 10SM SCT034 BKN043 15/07 A2957 RMK AO2 SLP014 T01500072 10172 20117 50011
cycle: 18

Station Type Date Time Source
KHLG TAF 2019/04/20 18:24 UTC NOAA

TAF KHLG 201722Z 2018/2118 23009KT P6SM BKN035
FM202000 21010KT P6SM VCSH BKN035
FM210300 21004KT P6SM OVC015
FM210900 25003KT P6SM OVC008
FM211500 25004KT P6SM BKN015

Example: see airport list